Terminal Aerodrome Forecast
Issued by NWS

Home | Current Version | Previous Version | Text Only | Print | Product List | Glossary On
Versions: 1 2 3 4 5 6 7 8 9 10 11 12 13 14 15 16 17 18 19 20 21 22 23 24 25 26 27 28 29
000
FTUS46 KOTX 180539
TAFSFF
TAF
KSFF 180539Z 1806/1906 00000KT P6SM -RA OVC040
     FM180830 00000KT P6SM -RA BKN024 OVC035
     FM181100 20003KT 5SM -RA SCT010 OVC018
     FM181800 19003KT P6SM SCT020 OVC030
     FM182000 VRB03KT P6SM SCT030 OVC050=

USA.gov is the U.S. government's official web portal to all federal, state and local government web resources and services.